HS Bizet — A8MI3 — position and weather

sailwx.info

Track history (hours):
 
Tides and Currents Weather Stations Pressure Air Temp Water Temp Dewpoint Dewpoint Depression Visibility Wind Speed Wind Dir Waves Ship Positions

HS Bizet

Last reported at 2016-Jan-21 06:33 UTC. Time now 2016-Feb-06 03:05 UTC.
Position S 34°16' E 151°19'.
Warning: this ship's position is 15 days out of date.

Length 246 m; draft 8.2 m.

Type: Ship (hazmat cat A). MMSI: 636091349.

Date/timePositionNaut miles runAvg speedWind from/ knotsBaromVisibWave heightAir tempDewpointWater temp
2016-Jan-21 06:33S 34°16' E 151°19'2 2.1
2016-Jan-21 05:33S 34°14' E 151°21'2 2.3
2016-Jan-21 04:33S 34°12' E 151°23'14 4.0
2016-Jan-21 01:10S 34°23' E 151°12'3 4.5
2016-Jan-21 00:33S 34°24' E 151°09'2 2.2
2016-Jan-20 23:33S 34°23' E 151°11'3 2.0
2016-Jan-20 22:19S 34°21' E 151°13'1 1.8
2016-Jan-20 21:33S 34°19' E 151°13'2 1.6
2016-Jan-20 20:33S 34°18' E 151°14'2 1.6
2016-Jan-20 19:04S 34°16' E 151°15'1 1.5
2016-Jan-20 18:33S 34°15' E 151°15'3 1.3
2016-Jan-20 16:33S 34°13' E 151°17'4 0.9
2016-Jan-20 12:22S 34°12' E 151°22'1 0.8
2016-Jan-20 11:33S 34°12' E 151°22'8 4.0
2016-Jan-20 09:32S 34°19' E 151°17'7 6.9
2016-Jan-20 08:30S 34°25' E 151°13'0 0.3
2016-Jan-20 07:22S 34°25' E 151°13'2 2.4
2016-Jan-20 06:28S 34°23' E 151°15'2 2.6
2016-Jan-20 05:33S 34°21' E 151°16'2 2.5
2016-Jan-20 04:33S 34°19' E 151°17'2 2.3
2016-Jan-20 03:33S 34°17' E 151°19'2 2.3
2016-Jan-20 02:33S 34°15' E 151°20'2 2.1
2016-Jan-20 01:33S 34°13' E 151°21'2 1.9
2016-Jan-20 00:33S 34°11' E 151°22'2 1.9
2016-Jan-19 23:33S 34°10' E 151°23'2 2.2
2016-Jan-19 22:33S 34°08' E 151°23'2 1.7
2016-Jan-19 21:33S 34°06' E 151°24'6 6.4
2016-Jan-19 20:33S 34°12' E 151°22'9 9.0
2016-Jan-19 19:33S 34°21' E 151°18'9 9.0
2016-Jan-19 18:33S 34°29' E 151°15'2 2.3
2016-Jan-19 17:33S 34°31' E 151°13'2 2.2
2016-Jan-19 16:33S 34°29' E 151°14'2 2.2
2016-Jan-19 15:33S 34°27' E 151°15'2 2.3
2016-Jan-19 14:33S 34°25' E 151°16'2 2.4
2016-Jan-19 13:33S 34°23' E 151°17'2 2.4
2016-Jan-19 12:33S 34°20' E 151°18'2 2.4
2016-Jan-19 11:33S 34°18' E 151°19'2 2.3
2016-Jan-19 10:33S 34°16' E 151°20'3 2.2
2016-Jan-19 09:26S 34°14' E 151°22'2 2.2
2016-Jan-19 08:33S 34°12' E 151°23'2 2.4
2016-Jan-19 07:33S 34°10' E 151°23'42 5.9
2016-Jan-19 00:26S 34°49' E 151°03'8 8.7
2016-Jan-18 23:33S 34°56' E 151°00'9 9.1
2016-Jan-18 22:33S 35°05' E 150°58'9 8.7
2016-Jan-18 21:29S 35°14' E 150°55'9 8.7
2016-Jan-18 20:29S 35°22' E 150°52'8 8.8
2016-Jan-18 19:33S 35°30' E 150°49'9 8.7
2016-Jan-18 18:33S 35°39' E 150°47'9 8.8
2016-Jan-18 17:33S 35°47' E 150°44'9 8.7
2016-Jan-18 16:33S 35°56' E 150°41'9 8.7
2016-Jan-18 15:33S 36°04' E 150°39'9 8.6
2016-Jan-18 14:33S 36°12' E 150°36'8 8.3
2016-Jan-18 13:33S 36°20' E 150°33'8 8.2
2016-Jan-18 12:33S 36°28' E 150°31'8 8.3
2016-Jan-18 11:33S 36°36' E 150°28'8 8.4
2016-Jan-18 10:33S 36°44' E 150°25'8 8.5
2016-Jan-18 09:33S 36°53' E 150°23'8 8.5
2016-Jan-18 08:33S 37°01' E 150°20'8 8.3
2016-Jan-18 07:33S 37°09' E 150°17'8 8.2
2016-Jan-18 06:33S 37°17' E 150°15'8 7.9
2016-Jan-18 05:33S 37°24' E 150°12'7 7.4
2016-Jan-18 04:33S 37°32' E 150°10'7 6.7
2016-Jan-18 03:33S 37°36' E 150°03'7 6.5
2016-Jan-18 02:33S 37°40' E 149°57'7 7.0
2016-Jan-18 01:33S 37°45' E 149°50'8 8.4
2016-Jan-18 00:33S 37°50' E 149°42'9 8.8
2016-Jan-17 23:33S 37°56' E 149°33'9 9.0
2016-Jan-17 22:33S 38°01' E 149°24'9 9.1
2016-Jan-17 21:33S 38°08' E 149°16'9 9.4
2016-Jan-17 20:33S 38°13' E 149°07'10 9.6
2016-Jan-17 19:33S 38°20' E 148°58'9 9.2
2016-Jan-17 18:33S 38°26' E 148°48'9 9.0
2016-Jan-17 17:33S 38°32' E 148°40'9 8.8
2016-Jan-17 16:33S 38°37' E 148°31'9 8.7
2016-Jan-17 15:33S 38°42' E 148°22'8 7.9
2016-Jan-17 14:33S 38°48' E 148°15'8 8.0
2016-Jan-17 13:33S 38°51' E 148°05'10 8.6
2016-Jan-17 12:22S 38°54' E 147°53'7 9.2
2016-Jan-17 11:33S 38°56' E 147°44'9 9.1
2016-Jan-17 10:33S 38°59' E 147°33'9 9.1
2016-Jan-17 09:33S 39°03' E 147°22'9 9.1
2016-Jan-17 08:33S 39°06' E 147°11'9 8.9
2016-Jan-17 07:33S 39°09' E 146°60'9 8.5
2016-Jan-17 06:33S 39°12' E 146°50'8 8.5
2016-Jan-17 05:33S 39°15' E 146°39'9 8.5
2016-Jan-17 04:33S 39°17' E 146°29'8 8.5
2016-Jan-17 03:33S 39°17' E 146°18'8 7.8
2016-Jan-17 02:33S 39°14' E 146°08'9 8.7
2016-Jan-17 01:33S 39°09' E 145°59'9 9.0
2016-Jan-17 00:33S 39°05' E 145°49'7 0.2
2016-Jan-15 08:32S 39°08' E 145°57'1413.8
2016-Jan-15 07:34S 39°13' E 146°13'1413.5
2016-Jan-15 06:33S 39°09' E 146°30'1414.0
2016-Jan-15 05:33S 39°05' E 146°47'1615.8
2016-Jan-15 04:33S 39°02' E 147°07'  
2016-Jan-11 10:33S 36°19' E 174°59'10 9.8
2016-Jan-11 09:33S 36°28' E 174°59'9 9.2
2016-Jan-11 08:33S 36°38' E 174°57'9 9.2
2016-Jan-11 07:33S 36°45' E 174°49'6 6.2
2016-Jan-11 06:34S 36°51' E 174°47'  
Track history (hours):
 
Tides and Currents Weather Stations Pressure Air Temp Water Temp Dewpoint Dewpoint Depression Visibility Wind Speed Wind Dir Waves Ship Positions

HS Bizet

Last reported at 2016-Jan-21 06:33 UTC. Time now 2016-Feb-06 03:05 UTC.
Position S 34°16' E 151°19'.
Warning: this ship's position is 15 days out of date.

Length 246 m; draft 8.2 m.

Type: Ship (hazmat cat A). MMSI: 636091349.

Date/timePositionNaut miles runAvg speedWind from/ knotsBaromVisibWave heightAir tempDewpointWater temp
2016-Jan-21 06:33S 34°16' E 151°19'2 2.1
2016-Jan-21 05:33S 34°14' E 151°21'2 2.3
2016-Jan-21 04:33S 34°12' E 151°23'14 4.0
2016-Jan-21 01:10S 34°23' E 151°12'3 4.5
2016-Jan-21 00:33S 34°24' E 151°09'2 2.2
2016-Jan-20 23:33S 34°23' E 151°11'3 2.0
2016-Jan-20 22:19S 34°21' E 151°13'1 1.8
2016-Jan-20 21:33S 34°19' E 151°13'2 1.6
2016-Jan-20 20:33S 34°18' E 151°14'2 1.6
2016-Jan-20 19:04S 34°16' E 151°15'1 1.5
2016-Jan-20 18:33S 34°15' E 151°15'3 1.3
2016-Jan-20 16:33S 34°13' E 151°17'4 0.9
2016-Jan-20 12:22S 34°12' E 151°22'1 0.8
2016-Jan-20 11:33S 34°12' E 151°22'8 4.0
2016-Jan-20 09:32S 34°19' E 151°17'7 6.9
2016-Jan-20 08:30S 34°25' E 151°13'0 0.3
2016-Jan-20 07:22S 34°25' E 151°13'2 2.4
2016-Jan-20 06:28S 34°23' E 151°15'2 2.6
2016-Jan-20 05:33S 34°21' E 151°16'2 2.5
2016-Jan-20 04:33S 34°19' E 151°17'2 2.3
2016-Jan-20 03:33S 34°17' E 151°19'2 2.3
2016-Jan-20 02:33S 34°15' E 151°20'2 2.1
2016-Jan-20 01:33S 34°13' E 151°21'2 1.9
2016-Jan-20 00:33S 34°11' E 151°22'2 1.9
2016-Jan-19 23:33S 34°10' E 151°23'2 2.2
2016-Jan-19 22:33S 34°08' E 151°23'2 1.7
2016-Jan-19 21:33S 34°06' E 151°24'6 6.4
2016-Jan-19 20:33S 34°12' E 151°22'9 9.0
2016-Jan-19 19:33S 34°21' E 151°18'9 9.0
2016-Jan-19 18:33S 34°29' E 151°15'2 2.3
2016-Jan-19 17:33S 34°31' E 151°13'2 2.2
2016-Jan-19 16:33S 34°29' E 151°14'2 2.2
2016-Jan-19 15:33S 34°27' E 151°15'2 2.3
2016-Jan-19 14:33S 34°25' E 151°16'2 2.4
2016-Jan-19 13:33S 34°23' E 151°17'2 2.4
2016-Jan-19 12:33S 34°20' E 151°18'2 2.4
2016-Jan-19 11:33S 34°18' E 151°19'2 2.3
2016-Jan-19 10:33S 34°16' E 151°20'3 2.2
2016-Jan-19 09:26S 34°14' E 151°22'2 2.2
2016-Jan-19 08:33S 34°12' E 151°23'2 2.4
2016-Jan-19 07:33S 34°10' E 151°23'42 5.9
2016-Jan-19 00:26S 34°49' E 151°03'8 8.7
2016-Jan-18 23:33S 34°56' E 151°00'9 9.1
2016-Jan-18 22:33S 35°05' E 150°58'9 8.7
2016-Jan-18 21:29S 35°14' E 150°55'9 8.7
2016-Jan-18 20:29S 35°22' E 150°52'8 8.8
2016-Jan-18 19:33S 35°30' E 150°49'9 8.7
2016-Jan-18 18:33S 35°39' E 150°47'9 8.8
2016-Jan-18 17:33S 35°47' E 150°44'9 8.7
2016-Jan-18 16:33S 35°56' E 150°41'9 8.7
2016-Jan-18 15:33S 36°04' E 150°39'9 8.6
2016-Jan-18 14:33S 36°12' E 150°36'8 8.3
2016-Jan-18 13:33S 36°20' E 150°33'8 8.2
2016-Jan-18 12:33S 36°28' E 150°31'8 8.3
2016-Jan-18 11:33S 36°36' E 150°28'8 8.4
2016-Jan-18 10:33S 36°44' E 150°25'8 8.5
2016-Jan-18 09:33S 36°53' E 150°23'8 8.5
2016-Jan-18 08:33S 37°01' E 150°20'8 8.3
2016-Jan-18 07:33S 37°09' E 150°17'8 8.2
2016-Jan-18 06:33S 37°17' E 150°15'8 7.9
2016-Jan-18 05:33S 37°24' E 150°12'7 7.4
2016-Jan-18 04:33S 37°32' E 150°10'7 6.7
2016-Jan-18 03:33S 37°36' E 150°03'7 6.5
2016-Jan-18 02:33S 37°40' E 149°57'7 7.0
2016-Jan-18 01:33S 37°45' E 149°50'8 8.4
2016-Jan-18 00:33S 37°50' E 149°42'9 8.8
2016-Jan-17 23:33S 37°56' E 149°33'9 9.0
2016-Jan-17 22:33S 38°01' E 149°24'9 9.1
2016-Jan-17 21:33S 38°08' E 149°16'9 9.4
2016-Jan-17 20:33S 38°13' E 149°07'10 9.6
2016-Jan-17 19:33S 38°20' E 148°58'9 9.2
2016-Jan-17 18:33S 38°26' E 148°48'9 9.0
2016-Jan-17 17:33S 38°32' E 148°40'9 8.8
2016-Jan-17 16:33S 38°37' E 148°31'9 8.7
2016-Jan-17 15:33S 38°42' E 148°22'8 7.9
2016-Jan-17 14:33S 38°48' E 148°15'8 8.0
2016-Jan-17 13:33S 38°51' E 148°05'10 8.6
2016-Jan-17 12:22S 38°54' E 147°53'7 9.2
2016-Jan-17 11:33S 38°56' E 147°44'9 9.1
2016-Jan-17 10:33S 38°59' E 147°33'9 9.1
2016-Jan-17 09:33S 39°03' E 147°22'9 9.1
2016-Jan-17 08:33S 39°06' E 147°11'9 8.9
2016-Jan-17 07:33S 39°09' E 146°60'9 8.5
2016-Jan-17 06:33S 39°12' E 146°50'8 8.5
2016-Jan-17 05:33S 39°15' E 146°39'9 8.5
2016-Jan-17 04:33S 39°17' E 146°29'8 8.5
2016-Jan-17 03:33S 39°17' E 146°18'8 7.8
2016-Jan-17 02:33S 39°14' E 146°08'9 8.7
2016-Jan-17 01:33S 39°09' E 145°59'9 9.0
2016-Jan-17 00:33S 39°05' E 145°49'7 0.2
2016-Jan-15 08:32S 39°08' E 145°57'1413.8
2016-Jan-15 07:34S 39°13' E 146°13'1413.5
2016-Jan-15 06:33S 39°09' E 146°30'1414.0
2016-Jan-15 05:33S 39°05' E 146°47'1615.8
2016-Jan-15 04:33S 39°02' E 147°07'  
2016-Jan-11 10:33S 36°19' E 174°59'10 9.8
2016-Jan-11 09:33S 36°28' E 174°59'9 9.2
2016-Jan-11 08:33S 36°38' E 174°57'9 9.2
2016-Jan-11 07:33S 36°45' E 174°49'6 6.2
2016-Jan-11 06:34S 36°51' E 174°47'  

Dump ship's entire track history